sensor_id;sensor_type;location;lat;lon;timestamp;temperature;humidity
58638;DHT22;54976;51.510;7.522;2023-02-26T00:00:13;0.50;97.30
58638;DHT22;54976;51.510;7.522;2023-02-26T00:03:20;0.40;97.20
58638;DHT22;54976;51.510;7.522;2023-02-26T00:06:21;0.40;97.30
58638;DHT22;54976;51.510;7.522;2023-02-26T00:09:22;0.40;97.50
58638;DHT22;54976;51.510;7.522;2023-02-26T00:12:23;0.20;97.40
58638;DHT22;54976;51.510;7.522;2023-02-26T00:15:23;0.30;97.50
58638;DHT22;54976;51.510;7.522;2023-02-26T00:18:24;0.30;97.60
58638;DHT22;54976;51.510;7.522;2023-02-26T00:21:26;0.30;97.50
58638;DHT22;54976;51.510;7.522;2023-02-26T00:24:27;0.20;97.60
58638;DHT22;54976;51.510;7.522;2023-02-26T00:27:28;0.30;97.90
58638;DHT22;54976;51.510;7.522;2023-02-26T00:30:29;0.20;98.10
58638;DHT22;54976;51.510;7.522;2023-02-26T00:33:30;0.10;97.90
58638;DHT22;54976;51.510;7.522;2023-02-26T00:40:06;0.10;98.00
58638;DHT22;54976;51.510;7.522;2023-02-26T00:43:19;0.00;98.00
58638;DHT22;54976;51.510;7.522;2023-02-26T00:46:28;0.10;98.20
58638;DHT22;54976;51.510;7.522;2023-02-26T00:56:07;0.00;98.20
58638;DHT22;54976;51.510;7.522;2023-02-26T00:59:08;0.00;98.50
58638;DHT22;54976;51.510;7.522;2023-02-26T01:02:08;0.10;98.40
58638;DHT22;54976;51.510;7.522;2023-02-26T01:05:10;0.10;97.90
58638;DHT22;54976;51.510;7.522;2023-02-26T01:08:36;0.10;97.90
58638;DHT22;54976;51.510;7.522;2023-02-26T01:11:35;0.10;97.70
58638;DHT22;54976;51.510;7.522;2023-02-26T01:14:37;0.00;97.90
58638;DHT22;54976;51.510;7.522;2023-02-26T01:21:02;-0.60;97.80
58638;DHT22;54976;51.510;7.522;2023-02-26T01:24:05;-0.10;98.10
58638;DHT22;54976;51.510;7.522;2023-02-26T01:27:07;0.10;98.30
58638;DHT22;54976;51.510;7.522;2023-02-26T01:30:09;-0.20;99.00
58638;DHT22;54976;51.510;7.522;2023-02-26T01:33:16;-0.10;98.80
58638;DHT22;54976;51.510;7.522;2023-02-26T01:36:22;0.00;98.80
58638;DHT22;54976;51.510;7.522;2023-02-26T01:39:39;-0.10;98.50
58638;DHT22;54976;51.510;7.522;2023-02-26T01:42:43;0.00;98.50
58638;DHT22;54976;51.510;7.522;2023-02-26T01:46:00;-0.10;98.30
58638;DHT22;54976;51.510;7.522;2023-02-26T01:49:04;-0.20;98.20
58638;DHT22;54976;51.510;7.522;2023-02-26T01:53:00;-0.20;97.90
58638;DHT22;54976;51.510;7.522;2023-02-26T01:55:27;-0.20;97.70
58638;DHT22;54976;51.510;7.522;2023-02-26T01:58:31;-0.10;97.40
58638;DHT22;54976;51.510;7.522;2023-02-26T02:01:35;-0.20;97.20
58638;DHT22;54976;51.510;7.522;2023-02-26T02:04:37;0.10;97.10
58638;DHT22;54976;51.510;7.522;2023-02-26T02:07:38;0.00;96.80
58638;DHT22;54976;51.510;7.522;2023-02-26T02:10:41;0.10;96.70
58638;DHT22;54976;51.510;7.522;2023-02-26T02:14:24;0.00;96.20
58638;DHT22;54976;51.510;7.522;2023-02-26T02:17:33;0.00;96.00
58638;DHT22;54976;51.510;7.522;2023-02-26T02:23:56;0.10;95.50
58638;DHT22;54976;51.510;7.522;2023-02-26T02:33:30;0.20;95.20
58638;DHT22;54976;51.510;7.522;2023-02-26T02:36:58;0.00;95.20
58638;DHT22;54976;51.510;7.522;2023-02-26T02:43:16;0.10;95.40
58638;DHT22;54976;51.510;7.522;2023-02-26T02:46:21;0.00;95.40
58638;DHT22;54976;51.510;7.522;2023-02-26T02:49:34;-0.10;95.10
58638;DHT22;54976;51.510;7.522;2023-02-26T02:52:58;-0.10;95.10
58638;DHT22;54976;51.510;7.522;2023-02-26T02:56:13;0.00;95.40
58638;DHT22;54976;51.510;7.522;2023-02-26T03:05:28;0.00;94.60
58638;DHT22;54976;51.510;7.522;2023-02-26T03:08:36;-0.10;94.60
58638;DHT22;54976;51.510;7.522;2023-02-26T03:11:38;-0.10;94.80
58638;DHT22;54976;51.510;7.522;2023-02-26T03:14:39;-0.30;94.80
58638;DHT22;54976;51.510;7.522;2023-02-26T03:21:48;-0.20;95.50
58638;DHT22;54976;51.510;7.522;2023-02-26T03:24:53;-0.40;95.50
58638;DHT22;54976;51.510;7.522;2023-02-26T03:31:39;-0.30;95.70
58638;DHT22;54976;51.510;7.522;2023-02-26T03:35:06;-0.50;95.80
58638;DHT22;54976;51.510;7.522;2023-02-26T03:38:13;-0.40;96.10
58638;DHT22;54976;51.510;7.522;2023-02-26T03:41:21;-0.50;96.00
58638;DHT22;54976;51.510;7.522;2023-02-26T03:44:31;-0.40;96.10
58638;DHT22;54976;51.510;7.522;2023-02-26T03:47:34;-0.30;96.30
58638;DHT22;54976;51.510;7.522;2023-02-26T03:56:46;-0.10;95.80
58638;DHT22;54976;51.510;7.522;2023-02-26T03:59:47;-0.20;95.70
58638;DHT22;54976;51.510;7.522;2023-02-26T04:03:06;-0.20;95.60
58638;DHT22;54976;51.510;7.522;2023-02-26T04:06:09;-0.30;95.70
58638;DHT22;54976;51.510;7.522;2023-02-26T04:09:10;-0.50;95.70
58638;DHT22;54976;51.510;7.522;2023-02-26T04:12:12;-0.50;95.90
58638;DHT22;54976;51.510;7.522;2023-02-26T04:15:13;-0.40;96.00
58638;DHT22;54976;51.510;7.522;2023-02-26T04:18:13;-0.40;96.10
58638;DHT22;54976;51.510;7.522;2023-02-26T04:21:16;-0.40;96.50
58638;DHT22;54976;51.510;7.522;2023-02-26T04:24:18;-0.30;96.00
58638;DHT22;54976;51.510;7.522;2023-02-26T04:27:18;-0.40;95.90
58638;DHT22;54976;51.510;7.522;2023-02-26T04:30:19;-0.30;95.70
58638;DHT22;54976;51.510;7.522;2023-02-26T04:33:19;-0.30;95.70
58638;DHT22;54976;51.510;7.522;2023-02-26T04:36:20;-0.30;95.80
58638;DHT22;54976;51.510;7.522;2023-02-26T04:39:21;-0.10;95.90
58638;DHT22;54976;51.510;7.522;2023-02-26T04:42:21;-0.10;96.00
58638;DHT22;54976;51.510;7.522;2023-02-26T04:45:22;-0.40;95.80
58638;DHT22;54976;51.510;7.522;2023-02-26T04:48:22;-0.40;96.00
58638;DHT22;54976;51.510;7.522;2023-02-26T04:51:23;-0.30;96.10
58638;DHT22;54976;51.510;7.522;2023-02-26T04:54:24;-0.40;96.10
58638;DHT22;54976;51.510;7.522;2023-02-26T04:57:25;-0.70;96.00
58638;DHT22;54976;51.510;7.522;2023-02-26T05:00:26;-0.70;96.30
58638;DHT22;54976;51.510;7.522;2023-02-26T05:03:26;-0.60;96.50
58638;DHT22;54976;51.510;7.522;2023-02-26T05:06:27;-0.60;96.60
58638;DHT22;54976;51.510;7.522;2023-02-26T05:09:28;-0.90;96.60
58638;DHT22;54976;51.510;7.522;2023-02-26T05:12:28;-0.80;96.70
58638;DHT22;54976;51.510;7.522;2023-02-26T05:15:29;-0.80;96.80
58638;DHT22;54976;51.510;7.522;2023-02-26T05:18:30;-1.00;96.90
58638;DHT22;54976;51.510;7.522;2023-02-26T05:21:31;-0.80;96.90
58638;DHT22;54976;51.510;7.522;2023-02-26T05:24:32;-0.80;97.10
58638;DHT22;54976;51.510;7.522;2023-02-26T05:27:33;-0.80;97.40
58638;DHT22;54976;51.510;7.522;2023-02-26T05:30:34;-0.80;97.50
58638;DHT22;54976;51.510;7.522;2023-02-26T05:33:34;-0.70;97.60
58638;DHT22;54976;51.510;7.522;2023-02-26T05:36:35;-0.80;97.10
58638;DHT22;54976;51.510;7.522;2023-02-26T05:39:36;-0.80;97.20
58638;DHT22;54976;51.510;7.522;2023-02-26T05:42:38;-0.90;97.50
58638;DHT22;54976;51.510;7.522;2023-02-26T05:45:38;-1.00;97.40
58638;DHT22;54976;51.510;7.522;2023-02-26T05:48:39;-1.00;97.40
58638;DHT22;54976;51.510;7.522;2023-02-26T05:51:39;-1.00;97.70
58638;DHT22;54976;51.510;7.522;2023-02-26T05:54:42;-1.00;97.40
58638;DHT22;54976;51.510;7.522;2023-02-26T05:57:42;-1.10;97.90
58638;DHT22;54976;51.510;7.522;2023-02-26T06:00:43;-1.20;98.30
58638;DHT22;54976;51.510;7.522;2023-02-26T06:03:44;-1.20;98.10
58638;DHT22;54976;51.510;7.522;2023-02-26T06:06:44;-1.20;97.70
58638;DHT22;54976;51.510;7.522;2023-02-26T06:09:45;-1.20;98.00
58638;DHT22;54976;51.510;7.522;2023-02-26T06:12:46;-1.30;98.10
58638;DHT22;54976;51.510;7.522;2023-02-26T06:15:49;-1.50;98.10
58638;DHT22;54976;51.510;7.522;2023-02-26T06:18:51;-1.30;98.20
58638;DHT22;54976;51.510;7.522;2023-02-26T06:21:52;-1.30;98.10
58638;DHT22;54976;51.510;7.522;2023-02-26T06:24:52;-1.20;98.10
58638;DHT22;54976;51.510;7.522;2023-02-26T06:27:54;-1.20;98.10
58638;DHT22;54976;51.510;7.522;2023-02-26T06:30:55;-1.30;98.30
58638;DHT22;54976;51.510;7.522;2023-02-26T06:33:56;-1.30;98.00
58638;DHT22;54976;51.510;7.522;2023-02-26T06:36:56;-1.10;98.20
58638;DHT22;54976;51.510;7.522;2023-02-26T06:39:57;-1.10;98.10
58638;DHT22;54976;51.510;7.522;2023-02-26T06:42:58;-1.20;98.30
58638;DHT22;54976;51.510;7.522;2023-02-26T06:45:59;-1.20;98.20
58638;DHT22;54976;51.510;7.522;2023-02-26T06:48:59;-1.30;98.20
58638;DHT22;54976;51.510;7.522;2023-02-26T06:52:00;-1.00;98.50
58638;DHT22;54976;51.510;7.522;2023-02-26T06:55:02;-0.90;98.30
58638;DHT22;54976;51.510;7.522;2023-02-26T06:58:02;-0.90;98.10
58638;DHT22;54976;51.510;7.522;2023-02-26T07:01:03;-1.00;97.50
58638;DHT22;54976;51.510;7.522;2023-02-26T07:04:04;-0.80;97.50
58638;DHT22;54976;51.510;7.522;2023-02-26T07:07:05;-0.80;97.50
58638;DHT22;54976;51.510;7.522;2023-02-26T07:10:05;-0.70;97.70
58638;DHT22;54976;51.510;7.522;2023-02-26T07:13:06;-0.70;97.60
58638;DHT22;54976;51.510;7.522;2023-02-26T07:16:07;-0.50;97.50
58638;DHT22;54976;51.510;7.522;2023-02-26T07:19:08;-0.40;97.20
58638;DHT22;54976;51.510;7.522;2023-02-26T07:22:08;-0.20;97.20
58638;DHT22;54976;51.510;7.522;2023-02-26T07:25:10;0.00;96.80
58638;DHT22;54976;51.510;7.522;2023-02-26T07:28:11;0.00;96.30
58638;DHT22;54976;51.510;7.522;2023-02-26T07:31:11;0.10;95.60
58638;DHT22;54976;51.510;7.522;2023-02-26T07:34:12;-0.10;95.50
58638;DHT22;54976;51.510;7.522;2023-02-26T07:37:13;0.00;95.60
58638;DHT22;54976;51.510;7.522;2023-02-26T07:40:14;-0.10;95.20
58638;DHT22;54976;51.510;7.522;2023-02-26T07:43:14;0.20;95.40
58638;DHT22;54976;51.510;7.522;2023-02-26T07:46:15;-0.10;95.50
58638;DHT22;54976;51.510;7.522;2023-02-26T07:49:16;-0.10;95.50
58638;DHT22;54976;51.510;7.522;2023-02-26T07:52:16;-0.10;95.70
58638;DHT22;54976;51.510;7.522;2023-02-26T07:55:17;0.00;95.20
58638;DHT22;54976;51.510;7.522;2023-02-26T07:58:18;0.30;95.30
58638;DHT22;54976;51.510;7.522;2023-02-26T08:01:18;0.10;95.20
58638;DHT22;54976;51.510;7.522;2023-02-26T08:04:19;0.20;94.90
58638;DHT22;54976;51.510;7.522;2023-02-26T08:07:19;0.20;94.80
58638;DHT22;54976;51.510;7.522;2023-02-26T08:10:20;0.20;95.00
58638;DHT22;54976;51.510;7.522;2023-02-26T08:13:21;0.30;94.50
58638;DHT22;54976;51.510;7.522;2023-02-26T08:16:21;0.60;94.20
58638;DHT22;54976;51.510;7.522;2023-02-26T08:19:22;0.50;93.10
58638;DHT22;54976;51.510;7.522;2023-02-26T08:22:23;1.00;92.90
58638;DHT22;54976;51.510;7.522;2023-02-26T08:25:23;1.60;91.60
58638;DHT22;54976;51.510;7.522;2023-02-26T08:28:24;2.10;90.80
58638;DHT22;54976;51.510;7.522;2023-02-26T08:31:24;2.30;89.20
58638;DHT22;54976;51.510;7.522;2023-02-26T08:34:27;2.30;89.80
58638;DHT22;54976;51.510;7.522;2023-02-26T08:37:29;2.40;88.00
58638;DHT22;54976;51.510;7.522;2023-02-26T08:40:29;2.40;87.50
58638;DHT22;54976;51.510;7.522;2023-02-26T08:43:30;2.60;84.20
58638;DHT22;54976;51.510;7.522;2023-02-26T08:46:30;3.30;81.50
58638;DHT22;54976;51.510;7.522;2023-02-26T08:49:31;3.10;78.00
58638;DHT22;54976;51.510;7.522;2023-02-26T08:52:32;3.80;70.80
58638;DHT22;54976;51.510;7.522;2023-02-26T08:55:33;3.60;69.20
58638;DHT22;54976;51.510;7.522;2023-02-26T08:58:33;4.20;65.40
58638;DHT22;54976;51.510;7.522;2023-02-26T09:01:34;4.70;62.70
58638;DHT22;54976;51.510;7.522;2023-02-26T09:04:35;4.90;61.00
58638;DHT22;54976;51.510;7.522;2023-02-26T09:07:35;5.30;59.00
58638;DHT22;54976;51.510;7.522;2023-02-26T09:10:36;5.70;59.50
58638;DHT22;54976;51.510;7.522;2023-02-26T09:13:37;6.70;58.40
58638;DHT22;54976;51.510;7.522;2023-02-26T09:16:38;7.50;55.00
58638;DHT22;54976;51.510;7.522;2023-02-26T09:19:38;8.00;52.90
58638;DHT22;54976;51.510;7.522;2023-02-26T09:22:39;8.30;51.40
58638;DHT22;54976;51.510;7.522;2023-02-26T09:25:40;8.30;48.00
58638;DHT22;54976;51.510;7.522;2023-02-26T09:28:41;8.40;49.90
58638;DHT22;54976;51.510;7.522;2023-02-26T09:31:41;9.00;48.40
58638;DHT22;54976;51.510;7.522;2023-02-26T09:34:42;8.80;45.40
58638;DHT22;54976;51.510;7.522;2023-02-26T09:37:42;7.80;48.00
58638;DHT22;54976;51.510;7.522;2023-02-26T09:40:56;7.80;48.60
58638;DHT22;54976;51.510;7.522;2023-02-26T09:47:21;8.90;47.50
58638;DHT22;54976;51.510;7.522;2023-02-26T09:50:40;10.00;43.20
58638;DHT22;54976;51.510;7.522;2023-02-26T09:53:41;9.00;44.30
58638;DHT22;54976;51.510;7.522;2023-02-26T09:56:44;8.40;44.70
58638;DHT22;54976;51.510;7.522;2023-02-26T09:59:44;8.20;45.60
58638;DHT22;54976;51.510;7.522;2023-02-26T10:02:58;7.00;46.30
58638;DHT22;54976;51.510;7.522;2023-02-26T10:12:33;5.20;50.60
58638;DHT22;54976;51.510;7.522;2023-02-26T10:15:39;5.20;50.90
58638;DHT22;54976;51.510;7.522;2023-02-26T10:18:47;5.20;51.80
58638;DHT22;54976;51.510;7.522;2023-02-26T10:22:14;5.10;50.80
58638;DHT22;54976;51.510;7.522;2023-02-26T10:25:22;5.70;50.50
58638;DHT22;54976;51.510;7.522;2023-02-26T10:31:31;5.80;50.00
58638;DHT22;54976;51.510;7.522;2023-02-26T10:34:59;5.90;49.90
58638;DHT22;54976;51.510;7.522;2023-02-26T10:38:10;6.20;47.80
58638;DHT22;54976;51.510;7.522;2023-02-26T10:41:19;5.90;48.60
58638;DHT22;54976;51.510;7.522;2023-02-26T10:44:35;5.90;48.90
58638;DHT22;54976;51.510;7.522;2023-02-26T10:50:58;6.60;46.30
58638;DHT22;54976;51.510;7.522;2023-02-26T10:57:30;6.20;46.20
58638;DHT22;54976;51.510;7.522;2023-02-26T11:00:34;5.90;46.90
58638;DHT22;54976;51.510;7.522;2023-02-26T11:03:38;6.10;47.00
58638;DHT22;54976;51.510;7.522;2023-02-26T11:10:22;5.90;48.00
58638;DHT22;54976;51.510;7.522;2023-02-26T11:13:25;6.00;48.50
58638;DHT22;54976;51.510;7.522;2023-02-26T11:16:26;6.60;47.00
58638;DHT22;54976;51.510;7.522;2023-02-26T11:19:31;6.00;46.30
58638;DHT22;54976;51.510;7.522;2023-02-26T11:22:33;6.00;46.40
58638;DHT22;54976;51.510;7.522;2023-02-26T11:25:36;5.50;47.30
58638;DHT22;54976;51.510;7.522;2023-02-26T11:28:44;5.40;47.90
58638;DHT22;54976;51.510;7.522;2023-02-26T11:31:50;4.90;49.40
58638;DHT22;54976;51.510;7.522;2023-02-26T11:34:53;4.80;50.00
58638;DHT22;54976;51.510;7.522;2023-02-26T11:37:58;4.70;49.60
58638;DHT22;54976;51.510;7.522;2023-02-26T11:41:00;4.70;49.70
58638;DHT22;54976;51.510;7.522;2023-02-26T11:44:05;4.70;48.50
58638;DHT22;54976;51.510;7.522;2023-02-26T11:47:16;4.50;48.80
58638;DHT22;54976;51.510;7.522;2023-02-26T11:50:20;4.50;49.60
58638;DHT22;54976;51.510;7.522;2023-02-26T11:53:40;5.90;48.90
58638;DHT22;54976;51.510;7.522;2023-02-26T11:56:41;6.70;45.90
58638;DHT22;54976;51.510;7.522;2023-02-26T11:59:50;6.50;45.40
58638;DHT22;54976;51.510;7.522;2023-02-26T12:02:58;7.00;45.10
58638;DHT22;54976;51.510;7.522;2023-02-26T12:06:01;6.90;43.50
58638;DHT22;54976;51.510;7.522;2023-02-26T12:09:04;6.30;42.70
58638;DHT22;54976;51.510;7.522;2023-02-26T12:16:12;7.00;42.50
58638;DHT22;54976;51.510;7.522;2023-02-26T12:19:54;7.20;42.60
58638;DHT22;54976;51.510;7.522;2023-02-26T12:29:40;10.00;37.00
58638;DHT22;54976;51.510;7.522;2023-02-26T12:33:09;11.10;35.90
58638;DHT22;54976;51.510;7.522;2023-02-26T12:43:05;10.70;34.70
58638;DHT22;54976;51.510;7.522;2023-02-26T12:46:10;10.40;35.50
58638;DHT22;54976;51.510;7.522;2023-02-26T13:22:19;8.50;37.80
58638;DHT22;54976;51.510;7.522;2023-02-26T13:28:57;8.80;38.70
58638;DHT22;54976;51.510;7.522;2023-02-26T13:35:24;8.10;38.00
58638;DHT22;54976;51.510;7.522;2023-02-26T13:45:22;7.80;39.80
58638;DHT22;54976;51.510;7.522;2023-02-26T13:49:00;7.80;39.70
58638;DHT22;54976;51.510;7.522;2023-02-26T13:52:03;7.30;40.10
58638;DHT22;54976;51.510;7.522;2023-02-26T13:55:04;7.40;40.20
58638;DHT22;54976;51.510;7.522;2023-02-26T13:58:39;7.00;41.00
58638;DHT22;54976;51.510;7.522;2023-02-26T14:24:37;7.20;41.10
58638;DHT22;54976;51.510;7.522;2023-02-26T14:27:40;6.80;41.30
58638;DHT22;54976;51.510;7.522;2023-02-26T14:30:47;6.50;42.40
58638;DHT22;54976;51.510;7.522;2023-02-26T14:37:01;8.60;41.40
58638;DHT22;54976;51.510;7.522;2023-02-26T14:40:16;9.60;38.40
58638;DHT22;54976;51.510;7.522;2023-02-26T14:43:22;9.50;37.50
58638;DHT22;54976;51.510;7.522;2023-02-26T14:46:26;9.00;37.80
58638;DHT22;54976;51.510;7.522;2023-02-26T14:49:34;8.30;38.90
58638;DHT22;54976;51.510;7.522;2023-02-26T14:56:09;8.30;39.80
58638;DHT22;54976;51.510;7.522;2023-02-26T15:02:49;10.90;35.90
58638;DHT22;54976;51.510;7.522;2023-02-26T15:22:28;11.10;32.40
58638;DHT22;54976;51.510;7.522;2023-02-26T15:25:42;10.80;33.00
58638;DHT22;54976;51.510;7.522;2023-02-26T15:28:43;11.30;33.00
58638;DHT22;54976;51.510;7.522;2023-02-26T15:31:59;11.20;33.00
58638;DHT22;54976;51.510;7.522;2023-02-26T15:35:19;10.80;32.90
58638;DHT22;54976;51.510;7.522;2023-02-26T15:38:21;9.40;35.00
58638;DHT22;54976;51.510;7.522;2023-02-26T15:41:24;9.20;35.90
58638;DHT22;54976;51.510;7.522;2023-02-26T15:44:28;8.90;36.70
58638;DHT22;54976;51.510;7.522;2023-02-26T15:47:30;8.30;37.30
58638;DHT22;54976;51.510;7.522;2023-02-26T15:50:37;8.20;38.20
58638;DHT22;54976;51.510;7.522;2023-02-26T15:53:41;8.10;38.70
58638;DHT22;54976;51.510;7.522;2023-02-26T15:56:43;7.80;39.30
58638;DHT22;54976;51.510;7.522;2023-02-26T15:59:46;7.50;40.00
58638;DHT22;54976;51.510;7.522;2023-02-26T16:02:48;7.20;40.30
58638;DHT22;54976;51.510;7.522;2023-02-26T16:05:48;6.90;41.00
58638;DHT22;54976;51.510;7.522;2023-02-26T16:08:49;6.70;41.50
58638;DHT22;54976;51.510;7.522;2023-02-26T16:11:53;6.50;42.20
58638;DHT22;54976;51.510;7.522;2023-02-26T16:14:58;6.20;43.40
58638;DHT22;54976;51.510;7.522;2023-02-26T16:18:03;6.00;43.80
58638;DHT22;54976;51.510;7.522;2023-02-26T16:21:06;5.60;44.50
58638;DHT22;54976;51.510;7.522;2023-02-26T16:24:11;5.00;44.00
58638;DHT22;54976;51.510;7.522;2023-02-26T16:27:13;4.80;44.30
58638;DHT22;54976;51.510;7.522;2023-02-26T16:30:19;4.70;44.50
58638;DHT22;54976;51.510;7.522;2023-02-26T16:33:24;4.60;44.70
58638;DHT22;54976;51.510;7.522;2023-02-26T16:36:44;4.40;45.20
58638;DHT22;54976;51.510;7.522;2023-02-26T16:39:45;4.30;45.50
58638;DHT22;54976;51.510;7.522;2023-02-26T16:42:51;4.10;45.10
58638;DHT22;54976;51.510;7.522;2023-02-26T16:45:55;4.00;45.90
58638;DHT22;54976;51.510;7.522;2023-02-26T16:49:02;4.00;46.60
58638;DHT22;54976;51.510;7.522;2023-02-26T16:52:04;3.90;47.20
58638;DHT22;54976;51.510;7.522;2023-02-26T16:55:05;3.90;46.80
58638;DHT22;54976;51.510;7.522;2023-02-26T16:58:12;3.80;47.50
58638;DHT22;54976;51.510;7.522;2023-02-26T17:01:18;3.80;48.30
58638;DHT22;54976;51.510;7.522;2023-02-26T17:04:23;3.40;48.40
58638;DHT22;54976;51.510;7.522;2023-02-26T17:07:29;3.60;48.80
58638;DHT22;54976;51.510;7.522;2023-02-26T17:10:53;3.50;48.90
58638;DHT22;54976;51.510;7.522;2023-02-26T17:14:15;3.00;49.40
58638;DHT22;54976;51.510;7.522;2023-02-26T17:17:21;3.10;49.90
58638;DHT22;54976;51.510;7.522;2023-02-26T17:20:23;3.30;50.50
58638;DHT22;54976;51.510;7.522;2023-02-26T17:23:29;3.00;50.50
58638;DHT22;54976;51.510;7.522;2023-02-26T17:26:30;3.20;51.20
58638;DHT22;54976;51.510;7.522;2023-02-26T17:29:38;3.10;51.50
58638;DHT22;54976;51.510;7.522;2023-02-26T17:32:40;2.90;51.60
58638;DHT22;54976;51.510;7.522;2023-02-26T17:35:41;3.40;52.30
58638;DHT22;54976;51.510;7.522;2023-02-26T17:38:42;3.00;52.30
58638;DHT22;54976;51.510;7.522;2023-02-26T17:41:46;2.90;52.90
58638;DHT22;54976;51.510;7.522;2023-02-26T17:44:47;3.10;52.80
58638;DHT22;54976;51.510;7.522;2023-02-26T17:47:48;2.90;53.10
58638;DHT22;54976;51.510;7.522;2023-02-26T17:50:51;2.70;53.60
58638;DHT22;54976;51.510;7.522;2023-02-26T17:53:53;2.70;53.80
58638;DHT22;54976;51.510;7.522;2023-02-26T17:56:53;2.20;53.70
58638;DHT22;54976;51.510;7.522;2023-02-26T17:59:54;2.70;54.40
58638;DHT22;54976;51.510;7.522;2023-02-26T18:02:55;2.10;54.00
58638;DHT22;54976;51.510;7.522;2023-02-26T18:05:56;2.60;54.00
58638;DHT22;54976;51.510;7.522;2023-02-26T18:08:57;2.70;54.60
58638;DHT22;54976;51.510;7.522;2023-02-26T18:11:57;2.70;55.10
58638;DHT22;54976;51.510;7.522;2023-02-26T18:14:58;2.60;55.00
58638;DHT22;54976;51.510;7.522;2023-02-26T18:17:59;2.50;55.20
58638;DHT22;54976;51.510;7.522;2023-02-26T18:20:59;2.50;55.50
58638;DHT22;54976;51.510;7.522;2023-02-26T18:24:00;2.70;55.60
58638;DHT22;54976;51.510;7.522;2023-02-26T18:27:01;2.50;55.80
58638;DHT22;54976;51.510;7.522;2023-02-26T18:30:02;2.20;56.00
58638;DHT22;54976;51.510;7.522;2023-02-26T18:33:03;2.70;56.80
58638;DHT22;54976;51.510;7.522;2023-02-26T18:36:04;2.20;56.40
58638;DHT22;54976;51.510;7.522;2023-02-26T18:39:10;3.00;56.60
58638;DHT22;54976;51.510;7.522;2023-02-26T18:42:21;2.90;56.40
58638;DHT22;54976;51.510;7.522;2023-02-26T18:45:22;2.80;56.20
58638;DHT22;54976;51.510;7.522;2023-02-26T18:48:23;3.10;56.00
58638;DHT22;54976;51.510;7.522;2023-02-26T18:51:23;3.00;56.00
58638;DHT22;54976;51.510;7.522;2023-02-26T18:54:24;3.10;56.00
58638;DHT22;54976;51.510;7.522;2023-02-26T18:57:25;3.10;56.20
58638;DHT22;54976;51.510;7.522;2023-02-26T19:00:25;3.30;56.60
58638;DHT22;54976;51.510;7.522;2023-02-26T19:03:28;3.20;56.00
58638;DHT22;54976;51.510;7.522;2023-02-26T19:06:28;3.30;56.60
58638;DHT22;54976;51.510;7.522;2023-02-26T19:09:29;2.80;56.10
58638;DHT22;54976;51.510;7.522;2023-02-26T19:12:30;3.10;56.50
58638;DHT22;54976;51.510;7.522;2023-02-26T19:15:31;3.00;56.80
58638;DHT22;54976;51.510;7.522;2023-02-26T19:18:31;3.20;56.80
58638;DHT22;54976;51.510;7.522;2023-02-26T19:21:33;3.20;57.00
58638;DHT22;54976;51.510;7.522;2023-02-26T19:24:35;2.80;57.20
58638;DHT22;54976;51.510;7.522;2023-02-26T19:27:37;2.90;57.60
58638;DHT22;54976;51.510;7.522;2023-02-26T19:30:38;2.90;57.80
58638;DHT22;54976;51.510;7.522;2023-02-26T19:33:39;2.80;57.90
58638;DHT22;54976;51.510;7.522;2023-02-26T19:36:40;2.90;58.30
58638;DHT22;54976;51.510;7.522;2023-02-26T19:39:47;2.70;58.60
58638;DHT22;54976;51.510;7.522;2023-02-26T19:42:47;2.70;58.80
58638;DHT22;54976;51.510;7.522;2023-02-26T19:45:48;2.70;59.20
58638;DHT22;54976;51.510;7.522;2023-02-26T19:48:49;2.70;59.30
58638;DHT22;54976;51.510;7.522;2023-02-26T19:51:50;2.40;59.30
58638;DHT22;54976;51.510;7.522;2023-02-26T19:54:50;1.90;59.50
58638;DHT22;54976;51.510;7.522;2023-02-26T19:57:51;2.50;60.00
58638;DHT22;54976;51.510;7.522;2023-02-26T20:00:52;2.00;60.20
58638;DHT22;54976;51.510;7.522;2023-02-26T20:03:53;2.40;60.80
58638;DHT22;54976;51.510;7.522;2023-02-26T20:06:53;2.20;60.80
58638;DHT22;54976;51.510;7.522;2023-02-26T20:09:54;2.20;60.70
58638;DHT22;54976;51.510;7.522;2023-02-26T20:12:55;2.10;60.40
58638;DHT22;54976;51.510;7.522;2023-02-26T20:15:57;2.30;60.30
58638;DHT22;54976;51.510;7.522;2023-02-26T20:18:58;2.00;60.20
58638;DHT22;54976;51.510;7.522;2023-02-26T20:21:59;2.30;60.80
58638;DHT22;54976;51.510;7.522;2023-02-26T20:25:00;2.30;61.10
58638;DHT22;54976;51.510;7.522;2023-02-26T20:28:01;2.10;61.60
58638;DHT22;54976;51.510;7.522;2023-02-26T20:31:02;1.90;62.30
58638;DHT22;54976;51.510;7.522;2023-02-26T20:34:02;1.90;63.30
58638;DHT22;54976;51.510;7.522;2023-02-26T20:37:03;1.90;63.70
58638;DHT22;54976;51.510;7.522;2023-02-26T20:40:05;1.80;63.50
58638;DHT22;54976;51.510;7.522;2023-02-26T20:43:07;1.80;63.30
58638;DHT22;54976;51.510;7.522;2023-02-26T20:46:07;1.70;63.00
58638;DHT22;54976;51.510;7.522;2023-02-26T20:49:08;1.70;63.50
58638;DHT22;54976;51.510;7.522;2023-02-26T20:52:10;1.70;63.90
58638;DHT22;54976;51.510;7.522;2023-02-26T20:55:11;1.70;64.30
58638;DHT22;54976;51.510;7.522;2023-02-26T20:58:11;1.90;65.10
58638;DHT22;54976;51.510;7.522;2023-02-26T21:01:12;1.30;65.20
58638;DHT22;54976;51.510;7.522;2023-02-26T21:04:13;1.50;66.50
58638;DHT22;54976;51.510;7.522;2023-02-26T21:07:14;1.50;66.90
58638;DHT22;54976;51.510;7.522;2023-02-26T21:10:21;1.30;67.70
58638;DHT22;54976;51.510;7.522;2023-02-26T21:13:21;1.30;68.10
58638;DHT22;54976;51.510;7.522;2023-02-26T21:16:23;1.20;68.90
58638;DHT22;54976;51.510;7.522;2023-02-26T21:19:24;1.30;70.20
58638;DHT22;54976;51.510;7.522;2023-02-26T21:22:25;1.00;70.70
58638;DHT22;54976;51.510;7.522;2023-02-26T21:25:26;0.80;70.40
58638;DHT22;54976;51.510;7.522;2023-02-26T21:28:26;1.10;70.40
58638;DHT22;54976;51.510;7.522;2023-02-26T21:31:27;1.20;70.90
58638;DHT22;54976;51.510;7.522;2023-02-26T21:34:29;1.10;71.60
58638;DHT22;54976;51.510;7.522;2023-02-26T21:37:33;1.30;72.40
58638;DHT22;54976;51.510;7.522;2023-02-26T21:40:34;1.10;72.90
58638;DHT22;54976;51.510;7.522;2023-02-26T21:43:38;1.00;74.60
58638;DHT22;54976;51.510;7.522;2023-02-26T21:46:39;0.80;74.90
58638;DHT22;54976;51.510;7.522;2023-02-26T21:49:40;0.70;76.00
58638;DHT22;54976;51.510;7.522;2023-02-26T21:52:41;0.60;76.90
58638;DHT22;54976;51.510;7.522;2023-02-26T21:55:41;0.60;78.10
58638;DHT22;54976;51.510;7.522;2023-02-26T21:58:42;0.60;79.30
58638;DHT22;54976;51.510;7.522;2023-02-26T22:01:43;0.30;79.40
58638;DHT22;54976;51.510;7.522;2023-02-26T22:04:44;0.30;83.00
58638;DHT22;54976;51.510;7.522;2023-02-26T22:07:45;0.50;86.00
58638;DHT22;54976;51.510;7.522;2023-02-26T22:10:46;0.30;86.30
58638;DHT22;54976;51.510;7.522;2023-02-26T22:13:47;0.30;86.20
58638;DHT22;54976;51.510;7.522;2023-02-26T22:16:48;0.40;86.30
58638;DHT22;54976;51.510;7.522;2023-02-26T22:19:49;0.00;86.20
58638;DHT22;54976;51.510;7.522;2023-02-26T22:22:49;0.30;87.20
58638;DHT22;54976;51.510;7.522;2023-02-26T22:25:51;0.40;89.00
58638;DHT22;54976;51.510;7.522;2023-02-26T22:28:51;0.30;88.40
58638;DHT22;54976;51.510;7.522;2023-02-26T22:31:52;0.00;87.60
58638;DHT22;54976;51.510;7.522;2023-02-26T22:34:53;0.00;89.60
58638;DHT22;54976;51.510;7.522;2023-02-26T22:37:55;0.00;90.40